CheckWX is a tool to help pilots better visualize weather data.  It is not intended as a substitute for an official pre-flight weather briefing.

12:22:44 UTC

KPHT METAR
Henry County Airport
Paris, Tennessee, USA
Current

28 mins ago

KPHT 181155Z AUTO 00000KT 10SM CLR M02/M05 A3023 RMK A01
Observed
Feb-18 @ 11:55 UTC
Visibility
10 SM
Flight Rules
VFR
Cloud Levels
  • Clear skies
Temperature
-2°C / 28°F
Dewpoint
-5°C / 23°F
Humidity
80%
Altimeter
30.23" Hg
Pressure
1023.72 hPa
Previous

48 mins ago

KPHT 181135Z AUTO 00000KT 10SM CLR M02/M05 A3022 RMK A01
Observed
Feb-18 @ 11:35 UTC
Visibility
10 SM
Flight Rules
VFR
Cloud Levels
  • Clear skies
Temperature
-2°C / 28°F
Dewpoint
-5°C / 23°F
Humidity
80%
Altimeter
30.22" Hg
Pressure
1023.42 hPa
Previous

1 hour ago

KPHT 181115Z AUTO 00000KT 10SM CLR M01/M05 A3021 RMK A01
Observed
Feb-18 @ 11:15 UTC
Visibility
10 SM
Flight Rules
VFR
Cloud Levels
  • Clear skies
Temperature
-1°C / 30°F
Dewpoint
-5°C / 23°F
Humidity
75%
Altimeter
30.21" Hg
Pressure
1023.02 hPa